Weather at Bachigualato Federal International Airport

Public forecast

Using degrees Celsius for public forecast. Weather courtesy of forecast.io.

Current aviation weather report (METAR) for Bachigualato Federal International Airport

Retrieved 2020/11/27 02:53 UTC (2 hours ago):

MMCL 270253Z 32010KT 10SM BKN080 27/14 A2991 RMK SLP127 52024 953 8/030 HZY

Aviation forecast (TAF) for Bachigualato Federal International Airport

Forecast is more than 6 hours old.

Retrieved 2020/11/26 18:00 UTC (10 hours ago):

TAF MMCL 261654Z 2618/2718 32010KT P6SM SCT030 BKN100 BKN250 FM270100 34010KT P6SM BKN020 OVC100 TEMPO 2703/2707 5SM -RA FM271200 00000KT 3SM HZ OVC020 FM271600 30010KT 5SM HZ SCT020 BKN100 BKN250